^^
Meteo Knjazevac Station Historical Data
Daily Summary for January 3, 2022 Units:  Both    English   Metric
Daily Weekly Monthly Yearly Custom
  High: Low: Average:
Temperature: 92.6 °F /  33.7 °C 55.2 °F /  12.9 °C 74.2 °F /  23.4 °C
Dew Point: 68.1 °F /  20.1 °C 53.7 °F /  12.1 °C 60.3 °F /  15.7 °C
Humidity: 96% 33% 66%
Wind Speed: 7mph /  11.3km/h - 1.8mph /  2.9km/h
Wind Gust: 15mph /  24.1km/h - -
Wind- - South
Pressure: 30.10 in /  1019.2 hPa 29.99 in /  1015.5 hPa -
Precipitation: 0.00 in /  0 mm    
Historical Graphs
 
 
Tabular Data for January 3, 2022
Time Temperature Dew Point Pressure Wind Wind Speed Wind Gust Humidity Rainfall Rate (Hourly) solar Conditions
00:00 64.9 °F /  18.3 °C 58.9 °F /  14.9 °C 30.04in /  1017.2hPa Calm   2mph /  3.2km/h 81% 0.00in /  0mm 0 W/m2
00:10 64.4 °F /  18 °C 58.5 °F /  14.7 °C 30.04in /  1017.2hPa NW 1mph /  1.6km/h 2mph /  3.2km/h 81% 0.00in /  0mm 0 W/m2
00:20 63.9 °F /  17.7 °C 58.6 °F /  14.8 °C 30.04in /  1017.2hPa Calm   1mph /  1.6km/h 83% 0.00in /  0mm 0 W/m2
00:30 63.4 °F /  17.4 °C 58.1 °F /  14.5 °C 30.04in /  1017.2hPa Calm   1mph /  1.6km/h 83% 0.00in /  0mm 0 W/m2
00:40 63 °F /  17.2 °C 58.1 °F /  14.5 °C 30.04in /  1017.2hPa NW 1mph /  1.6km/h 2mph /  3.2km/h 84% 0.00in /  0mm 0 W/m2
00:50 62.6 °F /  17 °C 57.7 °F /  14.3 °C 30.04in /  1017.2hPa Calm   2mph /  3.2km/h 84% 0.00in /  0mm 0 W/m2
01:00 62.2 °F /  16.8 °C 57.7 °F /  14.3 °C 30.04in /  1017.2hPa Calm   2mph /  3.2km/h 85% 0.00in /  0mm 0 W/m2
01:10 61.9 °F /  16.6 °C 57.3 °F /  14.1 °C 30.04in /  1017.2hPa WNW 1mph /  1.6km/h 2mph /  3.2km/h 85% 0.00in /  0mm 0 W/m2
01:20 61.3 °F /  16.3 °C 57.1 °F /  13.9 °C 30.05in /  1017.5hPa West 1mph /  1.6km/h 2mph /  3.2km/h 86% 0.00in /  0mm 0 W/m2
01:40 60.4 °F /  15.8 °C 56.9 °F /  13.8 °C 30.05in /  1017.5hPa WSW 2mph /  3.2km/h 3mph /  4.8km/h 88% 0.00in /  0mm 0 W/m2
01:50 60.3 °F /  15.7 °C 56.7 °F /  13.7 °C 30.05in /  1017.5hPa West 2mph /  3.2km/h 4mph /  6.4km/h 88% 0.00in /  0mm 0 W/m2
02:00 60.4 °F /  15.8 °C 56.9 °F /  13.8 °C 30.05in /  1017.5hPa West 1mph /  1.6km/h 4mph /  6.4km/h 88% 0.00in /  0mm 0 W/m2
02:10 60.1 °F /  15.6 °C 56.5 °F /  13.6 °C 30.05in /  1017.5hPa Calm   2mph /  3.2km/h 88% 0.00in /  0mm 0 W/m2
02:20 59.9 °F /  15.5 °C 56.6 °F /  13.7 °C 30.05in /  1017.5hPa Calm   1mph /  1.6km/h 89% 0.00in /  0mm 0 W/m2
02:30 59.5 °F /  15.3 °C 56.3 °F /  13.5 °C 30.05in /  1017.5hPa Calm   2mph /  3.2km/h 89% 0.00in /  0mm 0 W/m2
02:50 58.8 °F /  14.9 °C 55.9 °F /  13.3 °C 30.05in /  1017.5hPa Calm   2mph /  3.2km/h 90% 0.00in /  0mm 0 W/m2
03:00 58.6 °F /  14.8 °C 56 °F /  13.3 °C 30.05in /  1017.5hPa Calm   2mph /  3.2km/h 91% 0.00in /  0mm 0 W/m2
03:10 58.5 °F /  14.7 °C 55.5 °F /  13.1 °C 30.05in /  1017.5hPa West 1mph /  1.6km/h 2mph /  3.2km/h 90% 0.00in /  0mm 0 W/m2
03:20 58.1 °F /  14.5 °C 55.5 °F /  13.1 °C 30.05in /  1017.5hPa NW 1mph /  1.6km/h 2mph /  3.2km/h 91% 0.00in /  0mm 0 W/m2
03:40 57.4 °F /  14.1 °C 54.8 °F /  12.7 °C 30.05in /  1017.5hPa WSW 1mph /  1.6km/h 2mph /  3.2km/h 91% 0.00in /  0mm 0 W/m2
03:50 57.2 °F /  14 °C 55.2 °F /  12.9 °C 30.05in /  1017.5hPa WNW 1mph /  1.6km/h 2mph /  3.2km/h 93% 0.00in /  0mm 0 W/m2
04:10 56.9 °F /  13.8 °C 54.9 °F /  12.7 °C 30.05in /  1017.5hPa Calm   2mph /  3.2km/h 93% 0.00in /  0mm 0 W/m2
04:20 56.7 °F /  13.7 °C 55 °F /  12.8 °C 30.05in /  1017.5hPa Calm   1mph /  1.6km/h 94% 0.00in /  0mm 0 W/m2
04:40 56.7 °F /  13.7 °C 55 °F /  12.8 °C 30.06in /  1017.8hPa Calm   1mph /  1.6km/h 94% 0.00in /  0mm 0 W/m2
04:50 56.5 °F /  13.6 °C 54.8 °F /  12.7 °C 30.06in /  1017.8hPa Calm   2mph /  3.2km/h 94% 0.00in /  0mm 0 W/m2
05:10 56.3 °F /  13.5 °C 54.6 °F /  12.6 °C 30.06in /  1017.8hPa West 1mph /  1.6km/h 2mph /  3.2km/h 94% 0.00in /  0mm 0 W/m2
05:20 55.9 °F /  13.3 °C 54.2 °F /  12.3 °C 30.06in /  1017.8hPa West 1mph /  1.6km/h 3mph /  4.8km/h 94% 0.00in /  0mm 0 W/m2
05:30 55.6 °F /  13.1 °C 53.9 °F /  12.2 °C 30.06in /  1017.8hPa West 1mph /  1.6km/h 2mph /  3.2km/h 94% 0.00in /  0mm 7 W/m2
05:40 55.4 °F /  13 °C 53.7 °F /  12.1 °C 30.06in /  1017.8hPa Calm   2mph /  3.2km/h 94% 0.00in /  0mm 14 W/m2
05:50 55.2 °F /  12.9 °C 53.8 °F /  12.1 °C 30.07in /  1018.2hPa West 2mph /  3.2km/h 4mph /  6.4km/h 95% 0.00in /  0mm 21 W/m2
06:00 55.6 °F /  13.1 °C 54.2 °F /  12.3 °C 30.07in /  1018.2hPa West 1mph /  1.6km/h 5mph /  8km/h 95% 0.00in /  0mm 29 W/m2
06:20 55.6 °F /  13.1 °C 54.2 °F /  12.3 °C 30.07in /  1018.2hPa Calm   2mph /  3.2km/h 95% 0.00in /  0mm 77 W/m2
06:40 55.9 °F /  13.3 °C 54.5 °F /  12.5 °C 30.08in /  1018.5hPa Calm   1mph /  1.6km/h 95% 0.00in /  0mm 126 W/m2
06:50 56.1 °F /  13.4 °C 54.7 °F /  12.6 °C 30.08in /  1018.5hPa Calm   2mph /  3.2km/h 95% 0.00in /  0mm 151 W/m2
07:00 56.7 °F /  13.7 °C 55.5 °F /  13.1 °C 30.08in /  1018.5hPa Calm   2mph /  3.2km/h 96% 0.00in /  0mm 180 W/m2
07:20 58.3 °F /  14.6 °C 56.5 °F /  13.6 °C 30.08in /  1018.5hPa Calm   2mph /  3.2km/h 94% 0.00in /  0mm 246 W/m2
07:40 59.9 °F /  15.5 °C 57.3 °F /  14.1 °C 30.08in /  1018.5hPa Calm   5mph /  8km/h 91% 0.00in /  0mm 311 W/m2
07:50 61.2 °F /  16.2 °C 58.3 °F /  14.6 °C 30.09in /  1018.8hPa West 1mph /  1.6km/h 2mph /  3.2km/h 90% 0.00in /  0mm 345 W/m2
08:00 62.2 °F /  16.8 °C 58.6 °F /  14.8 °C 30.09in /  1018.8hPa Calm   2mph /  3.2km/h 88% 0.00in /  0mm 377 W/m2
08:10 63.5 °F /  17.5 °C 59.2 °F /  15.1 °C 30.09in /  1018.8hPa North 1mph /  1.6km/h 3mph /  4.8km/h 86% 0.00in /  0mm 354 W/m2
08:20 64.7 °F /  18.2 °C 59.8 °F /  15.4 °C 30.09in /  1018.8hPa SW 1mph /  1.6km/h 3mph /  4.8km/h 84% 0.00in /  0mm 459 W/m2
08:30 65.8 °F /  18.8 °C 60.5 °F /  15.8 °C 30.09in /  1018.8hPa Calm   3mph /  4.8km/h 83% 0.00in /  0mm 475 W/m2
08:50 69.1 °F /  20.6 °C 61.6 °F /  16.4 °C 30.09in /  1018.8hPa East 3mph /  4.8km/h 6mph /  9.7km/h 77% 0.00in /  0mm 311 W/m2
09:00 70 °F /  21.1 °C 62.4 °F /  16.9 °C 30.10in /  1019.2hPa NE 3mph /  4.8km/h 7mph /  11.3km/h 77% 0.00in /  0mm 336 W/m2
09:10 71.2 °F /  21.8 °C 62.9 °F /  17.2 °C 30.10in /  1019.2hPa NNE 1mph /  1.6km/h 5mph /  8km/h 75% 0.00in /  0mm 578 W/m2
09:20 72.1 °F /  22.3 °C 62.6 °F /  17 °C 30.10in /  1019.2hPa NE 2mph /  3.2km/h 7mph /  11.3km/h 72% 0.00in /  0mm 304 W/m2
09:30 72.5 °F /  22.5 °C 63 °F /  17.2 °C 30.09in /  1018.8hPa NE 2mph /  3.2km/h 6mph /  9.7km/h 72% 0.00in /  0mm 583 W/m2
09:40 74.3 °F /  23.5 °C 63.5 °F /  17.5 °C 30.09in /  1018.8hPa NE 2mph /  3.2km/h 8mph /  12.9km/h 69% 0.00in /  0mm 704 W/m2
09:50 76.1 °F /  24.5 °C 64.8 °F /  18.2 °C 30.09in /  1018.8hPa North 3mph /  4.8km/h 8mph /  12.9km/h 68% 0.00in /  0mm 728 W/m2
10:00 77 °F /  25 °C 63.9 °F /  17.7 °C 30.09in /  1018.8hPa NE 3mph /  4.8km/h 10mph /  16.1km/h 64% 0.00in /  0mm 750 W/m2
10:10 77.9 °F /  25.5 °C 64.3 °F /  17.9 °C 30.09in /  1018.8hPa NE 5mph /  8km/h 10mph /  16.1km/h 63% 0.00in /  0mm 772 W/m2
10:20 79 °F /  26.1 °C 65.3 °F /  18.5 °C 30.09in /  1018.8hPa NNE 5mph /  8km/h 7mph /  11.3km/h 63% 0.00in /  0mm 792 W/m2
10:30 79.9 °F /  26.6 °C 65.7 °F /  18.7 °C 30.09in /  1018.8hPa ENE 3mph /  4.8km/h 8mph /  12.9km/h 62% 0.00in /  0mm 811 W/m2
10:40 81 °F /  27.2 °C 66.7 °F /  19.3 °C 30.09in /  1018.8hPa NE 3mph /  4.8km/h 8mph /  12.9km/h 62% 0.00in /  0mm 829 W/m2
11:10 82.9 °F /  28.3 °C 67.1 °F /  19.5 °C 30.08in /  1018.5hPa NNE 5mph /  8km/h 9mph /  14.5km/h 59% 0.00in /  0mm 307 W/m2
11:20 83.7 °F /  28.7 °C 67.8 °F /  19.9 °C 30.08in /  1018.5hPa NNE 3mph /  4.8km/h 7mph /  11.3km/h 59% 0.00in /  0mm 150 W/m2
11:40 84.9 °F /  29.4 °C 66.9 °F /  19.4 °C 30.07in /  1018.2hPa North 3mph /  4.8km/h 9mph /  14.5km/h 55% 0.00in /  0mm 906 W/m2
11:50 85.3 °F /  29.6 °C 66.7 °F /  19.3 °C 30.07in /  1018.2hPa NNE 3mph /  4.8km/h 8mph /  12.9km/h 54% 0.00in /  0mm 914 W/m2
12:00 86 °F /  30 °C 67.4 °F /  19.7 °C 30.07in /  1018.2hPa North 1mph /  1.6km/h 8mph /  12.9km/h 54% 0.00in /  0mm 920 W/m2
12:10 86.2 °F /  30.1 °C 68.1 °F /  20.1 °C 30.06in /  1017.8hPa NW 2mph /  3.2km/h 8mph /  12.9km/h 55% 0.00in /  0mm 924 W/m2
12:20 86.9 °F /  30.5 °C 67.7 °F /  19.8 °C 30.06in /  1017.8hPa North 3mph /  4.8km/h 12mph /  19.3km/h 53% 0.00in /  0mm 927 W/m2
12:40 87.6 °F /  30.9 °C 66.7 °F /  19.3 °C 30.06in /  1017.8hPa North 2mph /  3.2km/h 12mph /  19.3km/h 50% 0.00in /  0mm 929 W/m2
12:50 88 °F /  31.1 °C 65.8 °F /  18.8 °C 30.05in /  1017.5hPa North 5mph /  8km/h 13mph /  20.9km/h 48% 0.00in /  0mm 927 W/m2
13:10 88.7 °F /  31.5 °C 64.6 °F /  18.1 °C 30.04in /  1017.2hPa NNE 3mph /  4.8km/h 12mph /  19.3km/h 45% 0.00in /  0mm 920 W/m2
13:20 88.9 °F /  31.6 °C 66 °F /  18.9 °C 30.04in /  1017.2hPa NE 2mph /  3.2km/h 8mph /  12.9km/h 47% 0.00in /  0mm 913 W/m2
13:30 89.4 °F /  31.9 °C 66.5 °F /  19.2 °C 30.04in /  1017.2hPa North 3mph /  4.8km/h 12mph /  19.3km/h 47% 0.00in /  0mm 906 W/m2
13:40 89.4 °F /  31.9 °C 64.6 °F /  18.1 °C 30.04in /  1017.2hPa NNW 2mph /  3.2km/h 9mph /  14.5km/h 44% 0.00in /  0mm 896 W/m2
13:50 89.8 °F /  32.1 °C 64.3 °F /  17.9 °C 30.03in /  1016.8hPa NNE 2mph /  3.2km/h 13mph /  20.9km/h 43% 0.00in /  0mm 886 W/m2
14:00 90 °F /  32.2 °C 64.5 °F /  18.1 °C 30.03in /  1016.8hPa NNE 3mph /  4.8km/h 12mph /  19.3km/h 43% 0.00in /  0mm 873 W/m2
14:20 90.5 °F /  32.5 °C 62.9 °F /  17.2 °C 30.02in /  1016.5hPa North 2mph /  3.2km/h 13mph /  20.9km/h 40% 0.00in /  0mm 845 W/m2
14:30 90.9 °F /  32.7 °C 62.5 °F /  16.9 °C 30.02in /  1016.5hPa NNW 6mph /  9.7km/h 13mph /  20.9km/h 39% 0.00in /  0mm 828 W/m2
14:40 91.4 °F /  33 °C 62.2 °F /  16.8 °C 30.02in /  1016.5hPa NNW 2mph /  3.2km/h 9mph /  14.5km/h 38% 0.00in /  0mm 811 W/m2
14:50 91.6 °F /  33.1 °C 61.6 °F /  16.4 °C 30.02in /  1016.5hPa North 7mph /  11.3km/h 14mph /  22.5km/h 37% 0.00in /  0mm 792 W/m2
15:00 91.8 °F /  33.2 °C 60.2 °F /  15.7 °C 30.01in /  1016.1hPa North 5mph /  8km/h 13mph /  20.9km/h 35% 0.00in /  0mm 771 W/m2
15:10 92.3 °F /  33.5 °C 60.7 °F /  15.9 °C 30.01in /  1016.1hPa North 5mph /  8km/h 10mph /  16.1km/h 35% 0.00in /  0mm 750 W/m2
15:30 92.5 °F /  33.6 °C 60 °F /  15.6 °C 30.01in /  1016.1hPa North 5mph /  8km/h 12mph /  19.3km/h 34% 0.00in /  0mm 703 W/m2
15:40 92.5 °F /  33.6 °C 60 °F /  15.6 °C 30.01in /  1016.1hPa North 3mph /  4.8km/h 15mph /  24.1km/h 34% 0.00in /  0mm 679 W/m2
16:00 92.6 °F /  33.7 °C 60.2 °F /  15.7 °C 30.01in /  1016.1hPa NNW 2mph /  3.2km/h 9mph /  14.5km/h 34% 0.00in /  0mm 626 W/m2
16:10 92.3 °F /  33.5 °C 59 °F /  15 °C 30.01in /  1016.1hPa North 5mph /  8km/h 12mph /  19.3km/h 33% 0.00in /  0mm 599 W/m2
16:30 92.5 °F /  33.6 °C 60 °F /  15.6 °C 30.00in /  1015.8hPa North 5mph /  8km/h 10mph /  16.1km/h 34% 0.00in /  0mm 542 W/m2
16:40 92.3 °F /  33.5 °C 59 °F /  15 °C 30.00in /  1015.8hPa North 5mph /  8km/h 8mph /  12.9km/h 33% 0.00in /  0mm 513 W/m2
16:50 92.3 °F /  33.5 °C 62.2 °F /  16.8 °C 30.00in /  1015.8hPa North 2mph /  3.2km/h 10mph /  16.1km/h 37% 0.00in /  0mm 483 W/m2
17:00 91.9 °F /  33.3 °C 62.7 °F /  17.1 °C 30.00in /  1015.8hPa NNE 3mph /  4.8km/h 7mph /  11.3km/h 38% 0.00in /  0mm 452 W/m2
17:30 90.1 °F /  32.3 °C 61.1 °F /  16.2 °C 29.99in /  1015.5hPa NE 2mph /  3.2km/h 9mph /  14.5km/h 38% 0.00in /  0mm 352 W/m2
17:40 90.5 °F /  32.5 °C 62.2 °F /  16.8 °C 29.99in /  1015.5hPa NNE 2mph /  3.2km/h 9mph /  14.5km/h 39% 0.00in /  0mm 329 W/m2
17:50 90.7 °F /  32.6 °C 61.6 °F /  16.4 °C 29.99in /  1015.5hPa NNE 2mph /  3.2km/h 8mph /  12.9km/h 38% 0.00in /  0mm 284 W/m2
18:10 90.5 °F /  32.5 °C 62.2 °F /  16.8 °C 29.99in /  1015.5hPa North 1mph /  1.6km/h 7mph /  11.3km/h 39% 0.00in /  0mm 215 W/m2
18:20 90 °F /  32.2 °C 61.7 °F /  16.5 °C 29.99in /  1015.5hPa NNW 3mph /  4.8km/h 7mph /  11.3km/h 39% 0.00in /  0mm 188 W/m2
18:30 89.6 °F /  32 °C 61.4 °F /  16.3 °C 29.99in /  1015.5hPa North 2mph /  3.2km/h 10mph /  16.1km/h 39% 0.00in /  0mm 167 W/m2
18:40 89.1 °F /  31.7 °C 60.9 °F /  16.1 °C 30.00in /  1015.8hPa North 6mph /  9.7km/h 9mph /  14.5km/h 39% 0.00in /  0mm 135 W/m2
18:50 88.5 °F /  31.4 °C 61.1 °F /  16.2 °C 30.00in /  1015.8hPa North 3mph /  4.8km/h 8mph /  12.9km/h 40% 0.00in /  0mm 108 W/m2
19:00 87.8 °F /  31 °C 61.9 °F /  16.6 °C 30.00in /  1015.8hPa North 2mph /  3.2km/h 8mph /  12.9km/h 42% 0.00in /  0mm 82 W/m2
19:10 87.1 °F /  30.6 °C 61.8 °F /  16.6 °C 30.01in /  1016.1hPa NNW 2mph /  3.2km/h 7mph /  11.3km/h 43% 0.00in /  0mm 48 W/m2
19:20 86.1 °F /  30.1 °C 61.7 °F /  16.5 °C 30.00in /  1015.8hPa Calm   5mph /  8km/h 44% 0.00in /  0mm 28 W/m2
19:30 84.9 °F /  29.4 °C 59.9 °F /  15.5 °C 30.01in /  1016.1hPa NNW 1mph /  1.6km/h 6mph /  9.7km/h 43% 0.00in /  0mm 19 W/m2
19:50 83.1 °F /  28.4 °C 61.4 °F /  16.3 °C 30.01in /  1016.1hPa NNW 1mph /  1.6km/h 5mph /  8km/h 48% 0.00in /  0mm 5 W/m2
20:00 82 °F /  27.8 °C 61 °F /  16.1 °C 30.01in /  1016.1hPa NW 1mph /  1.6km/h 2mph /  3.2km/h 49% 0.00in /  0mm 0 W/m2
20:10 80.8 °F /  27.1 °C 61.5 °F /  16.4 °C 30.02in /  1016.5hPa SSW 1mph /  1.6km/h 3mph /  4.8km/h 52% 0.00in /  0mm 0 W/m2
20:20 80 °F /  26.7 °C 61.9 °F /  16.6 °C 30.02in /  1016.5hPa WSW 1mph /  1.6km/h 3mph /  4.8km/h 54% 0.00in /  0mm 0 W/m2
20:30 79.1 °F /  26.2 °C 61.6 °F /  16.4 °C 30.03in /  1016.8hPa WSW 1mph /  1.6km/h 2mph /  3.2km/h 55% 0.00in /  0mm 0 W/m2
20:40 78 °F /  25.6 °C 61.6 °F /  16.4 °C 30.03in /  1016.8hPa SW 1mph /  1.6km/h 3mph /  4.8km/h 57% 0.00in /  0mm 0 W/m2
20:50 77 °F /  25 °C 61.5 °F /  16.4 °C 30.03in /  1016.8hPa SSW 1mph /  1.6km/h 3mph /  4.8km/h 59% 0.00in /  0mm 0 W/m2
21:00 75.2 °F /  24 °C 60.3 °F /  15.7 °C 30.03in /  1016.8hPa South 3mph /  4.8km/h 5mph /  8km/h 60% 0.00in /  0mm 0 W/m2
21:10 74.1 °F /  23.4 °C 60.3 °F /  15.7 °C 30.04in /  1017.2hPa South 2mph /  3.2km/h 4mph /  6.4km/h 62% 0.00in /  0mm 0 W/m2
21:20 73.4 °F /  23 °C 60 °F /  15.6 °C 30.04in /  1017.2hPa South 1mph /  1.6km/h 5mph /  8km/h 63% 0.00in /  0mm 0 W/m2
21:40 72.3 °F /  22.4 °C 59.9 °F /  15.5 °C 30.04in /  1017.2hPa South 3mph /  4.8km/h 5mph /  8km/h 65% 0.00in /  0mm 0 W/m2
22:20 70.7 °F /  21.5 °C 60 °F /  15.6 °C 30.05in /  1017.5hPa WSW 1mph /  1.6km/h 2mph /  3.2km/h 69% 0.00in /  0mm 0 W/m2
22:30 70.3 °F /  21.3 °C 60 °F /  15.6 °C 30.05in /  1017.5hPa South 2mph /  3.2km/h 4mph /  6.4km/h 70% 0.00in /  0mm 0 W/m2
22:50 68.9 °F /  20.5 °C 59.9 °F /  15.5 °C 30.05in /  1017.5hPa Calm   4mph /  6.4km/h 73% 0.00in /  0mm 0 W/m2
23:00 68.7 °F /  20.4 °C 60.1 °F /  15.6 °C 30.05in /  1017.5hPa ESE 1mph /  1.6km/h 3mph /  4.8km/h 74% 0.00in /  0mm 0 W/m2
23:10 68.5 °F /  20.3 °C 59.9 °F /  15.5 °C 30.05in /  1017.5hPa WSW 1mph /  1.6km/h 2mph /  3.2km/h 74% 0.00in /  0mm 0 W/m2
23:20 68 °F /  20 °C 59.8 °F /  15.4 °C 30.05in /  1017.5hPa WNW 1mph /  1.6km/h 2mph /  3.2km/h 75% 0.00in /  0mm 0 W/m2
23:30 67.6 °F /  19.8 °C 60.2 °F /  15.7 °C 30.05in /  1017.5hPa Calm   2mph /  3.2km/h 77% 0.00in /  0mm 0 W/m2
23:40 67.3 °F /  19.6 °C 60.2 °F /  15.7 °C 30.05in /  1017.5hPa Calm   1mph /  1.6km/h 78% 0.00in /  0mm 0 W/m2
23:50 67.1 °F /  19.5 °C 60 °F /  15.6 °C 30.06in /  1017.8hPa West 1mph /  1.6km/h 2mph /  3.2km/h 78% 0.00in /  0mm 0 W/m2
Knjazevac, Serbia
Compliments of Weather Underground - 2 mb